sensor_id;sensor_type;location;lat;lon;timestamp;temperature;humidity
4399;DHT22;2213;49.720;7.296;2023-08-08T00:02:07;12.80;99.90
4399;DHT22;2213;49.720;7.296;2023-08-08T00:04:37;12.80;99.90
4399;DHT22;2213;49.720;7.296;2023-08-08T00:07:07;12.80;99.90
4399;DHT22;2213;49.720;7.296;2023-08-08T00:09:37;12.80;99.90
4399;DHT22;2213;49.720;7.296;2023-08-08T00:12:08;12.90;99.90
4399;DHT22;2213;49.720;7.296;2023-08-08T00:14:38;12.80;99.90
4399;DHT22;2213;49.720;7.296;2023-08-08T00:17:09;12.70;99.90
4399;DHT22;2213;49.720;7.296;2023-08-08T00:19:39;12.80;99.90
4399;DHT22;2213;49.720;7.296;2023-08-08T00:22:09;12.70;99.90
4399;DHT22;2213;49.720;7.296;2023-08-08T00:24:39;12.60;99.90
4399;DHT22;2213;49.720;7.296;2023-08-08T00:27:09;12.60;99.90
4399;DHT22;2213;49.720;7.296;2023-08-08T00:29:39;12.50;99.90
4399;DHT22;2213;49.720;7.296;2023-08-08T00:32:11;12.60;99.90
4399;DHT22;2213;49.720;7.296;2023-08-08T00:34:40;12.50;99.90
4399;DHT22;2213;49.720;7.296;2023-08-08T00:37:10;12.50;99.90
4399;DHT22;2213;49.720;7.296;2023-08-08T00:39:41;12.50;99.90
4399;DHT22;2213;49.720;7.296;2023-08-08T00:42:13;12.50;99.90
4399;DHT22;2213;49.720;7.296;2023-08-08T00:44:44;12.40;99.90
4399;DHT22;2213;49.720;7.296;2023-08-08T00:47:14;12.40;99.90
4399;DHT22;2213;49.720;7.296;2023-08-08T00:49:45;12.40;99.90
4399;DHT22;2213;49.720;7.296;2023-08-08T00:52:17;12.30;99.90
4399;DHT22;2213;49.720;7.296;2023-08-08T00:54:47;12.20;99.90
4399;DHT22;2213;49.720;7.296;2023-08-08T00:57:17;12.20;99.90
4399;DHT22;2213;49.720;7.296;2023-08-08T00:59:47;12.20;99.90
4399;DHT22;2213;49.720;7.296;2023-08-08T01:02:18;12.30;99.90
4399;DHT22;2213;49.720;7.296;2023-08-08T01:04:48;12.20;99.90
4399;DHT22;2213;49.720;7.296;2023-08-08T01:07:22;12.10;99.90
4399;DHT22;2213;49.720;7.296;2023-08-08T01:10:03;12.00;99.90
4399;DHT22;2213;49.720;7.296;2023-08-08T01:12:41;12.10;99.90
4399;DHT22;2213;49.720;7.296;2023-08-08T01:15:15;12.10;99.90
4399;DHT22;2213;49.720;7.296;2023-08-08T01:17:48;12.10;99.90
4399;DHT22;2213;49.720;7.296;2023-08-08T01:20:19;12.00;99.90
4399;DHT22;2213;49.720;7.296;2023-08-08T01:22:58;12.00;99.90
4399;DHT22;2213;49.720;7.296;2023-08-08T01:25:40;12.00;99.90
4399;DHT22;2213;49.720;7.296;2023-08-08T01:28:11;12.00;99.90
4399;DHT22;2213;49.720;7.296;2023-08-08T01:30:41;12.00;99.90
4399;DHT22;2213;49.720;7.296;2023-08-08T01:33:13;11.90;99.90
4399;DHT22;2213;49.720;7.296;2023-08-08T01:35:46;11.90;99.90
4399;DHT22;2213;49.720;7.296;2023-08-08T01:38:22;11.90;99.90
4399;DHT22;2213;49.720;7.296;2023-08-08T01:40:57;11.80;99.90
4399;DHT22;2213;49.720;7.296;2023-08-08T01:43:29;11.70;99.90
4399;DHT22;2213;49.720;7.296;2023-08-08T01:46:00;11.80;99.90
4399;DHT22;2213;49.720;7.296;2023-08-08T01:48:32;11.70;99.90
4399;DHT22;2213;49.720;7.296;2023-08-08T01:51:02;11.70;99.90
4399;DHT22;2213;49.720;7.296;2023-08-08T01:53:33;11.70;99.90
4399;DHT22;2213;49.720;7.296;2023-08-08T01:56:04;11.70;99.90
4399;DHT22;2213;49.720;7.296;2023-08-08T01:58:34;11.60;99.90
4399;DHT22;2213;49.720;7.296;2023-08-08T02:01:04;11.60;99.90
4399;DHT22;2213;49.720;7.296;2023-08-08T02:03:33;11.60;99.90
4399;DHT22;2213;49.720;7.296;2023-08-08T02:06:03;11.60;99.90
4399;DHT22;2213;49.720;7.296;2023-08-08T02:08:33;11.60;99.90
4399;DHT22;2213;49.720;7.296;2023-08-08T02:11:05;11.50;99.90
4399;DHT22;2213;49.720;7.296;2023-08-08T02:13:35;11.50;99.90
4399;DHT22;2213;49.720;7.296;2023-08-08T02:16:06;11.50;99.90
4399;DHT22;2213;49.720;7.296;2023-08-08T02:18:36;11.50;99.90
4399;DHT22;2213;49.720;7.296;2023-08-08T02:21:08;11.50;99.90
4399;DHT22;2213;49.720;7.296;2023-08-08T02:23:38;11.50;99.90
4399;DHT22;2213;49.720;7.296;2023-08-08T02:26:09;11.50;99.90
4399;DHT22;2213;49.720;7.296;2023-08-08T02:28:39;11.40;99.90
4399;DHT22;2213;49.720;7.296;2023-08-08T02:31:09;11.20;99.90
4399;DHT22;2213;49.720;7.296;2023-08-08T02:33:39;11.20;99.90
4399;DHT22;2213;49.720;7.296;2023-08-08T02:36:11;11.10;99.90
4399;DHT22;2213;49.720;7.296;2023-08-08T02:38:41;11.10;99.90
4399;DHT22;2213;49.720;7.296;2023-08-08T02:41:12;11.10;99.90
4399;DHT22;2213;49.720;7.296;2023-08-08T02:43:43;11.20;99.90
4399;DHT22;2213;49.720;7.296;2023-08-08T02:46:13;11.10;99.90
4399;DHT22;2213;49.720;7.296;2023-08-08T02:48:43;11.00;99.90
4399;DHT22;2213;49.720;7.296;2023-08-08T02:51:13;11.10;99.90
4399;DHT22;2213;49.720;7.296;2023-08-08T02:53:44;11.00;99.90
4399;DHT22;2213;49.720;7.296;2023-08-08T02:56:16;11.10;99.90
4399;DHT22;2213;49.720;7.296;2023-08-08T02:58:47;11.10;99.90
4399;DHT22;2213;49.720;7.296;2023-08-08T03:01:17;11.10;99.90
4399;DHT22;2213;49.720;7.296;2023-08-08T03:03:50;11.10;99.90
4399;DHT22;2213;49.720;7.296;2023-08-08T03:06:19;11.00;99.90
4399;DHT22;2213;49.720;7.296;2023-08-08T03:08:49;11.00;99.90
4399;DHT22;2213;49.720;7.296;2023-08-08T03:11:21;11.00;99.90
4399;DHT22;2213;49.720;7.296;2023-08-08T03:13:50;11.10;99.90
4399;DHT22;2213;49.720;7.296;2023-08-08T03:16:21;11.00;99.90
4399;DHT22;2213;49.720;7.296;2023-08-08T03:18:52;11.00;99.90
4399;DHT22;2213;49.720;7.296;2023-08-08T03:21:20;10.90;99.90
4399;DHT22;2213;49.720;7.296;2023-08-08T03:23:52;10.90;99.90
4399;DHT22;2213;49.720;7.296;2023-08-08T03:26:24;11.00;99.90
4399;DHT22;2213;49.720;7.296;2023-08-08T03:28:55;10.80;99.90
4399;DHT22;2213;49.720;7.296;2023-08-08T03:31:26;10.80;99.90
4399;DHT22;2213;49.720;7.296;2023-08-08T03:33:57;10.80;99.90
4399;DHT22;2213;49.720;7.296;2023-08-08T03:36:28;10.70;99.90
4399;DHT22;2213;49.720;7.296;2023-08-08T03:38:58;10.70;99.90
4399;DHT22;2213;49.720;7.296;2023-08-08T03:41:30;10.80;99.90
4399;DHT22;2213;49.720;7.296;2023-08-08T03:44:00;10.80;99.90
4399;DHT22;2213;49.720;7.296;2023-08-08T03:46:30;10.80;99.90
4399;DHT22;2213;49.720;7.296;2023-08-08T03:49:01;10.80;99.90
4399;DHT22;2213;49.720;7.296;2023-08-08T03:51:32;10.70;99.90
4399;DHT22;2213;49.720;7.296;2023-08-08T03:54:02;10.70;99.90
4399;DHT22;2213;49.720;7.296;2023-08-08T03:56:34;10.60;99.90
4399;DHT22;2213;49.720;7.296;2023-08-08T03:59:04;10.50;99.90
4399;DHT22;2213;49.720;7.296;2023-08-08T04:01:34;10.60;99.90
4399;DHT22;2213;49.720;7.296;2023-08-08T04:04:06;10.60;99.90
4399;DHT22;2213;49.720;7.296;2023-08-08T04:06:36;10.60;99.90
4399;DHT22;2213;49.720;7.296;2023-08-08T04:09:06;10.60;99.90
4399;DHT22;2213;49.720;7.296;2023-08-08T04:11:38;10.60;99.90
4399;DHT22;2213;49.720;7.296;2023-08-08T04:14:10;10.60;99.90
4399;DHT22;2213;49.720;7.296;2023-08-08T04:16:39;10.50;99.90
4399;DHT22;2213;49.720;7.296;2023-08-08T04:19:10;10.50;99.90
4399;DHT22;2213;49.720;7.296;2023-08-08T04:21:40;10.50;99.90
4399;DHT22;2213;49.720;7.296;2023-08-08T04:24:11;10.50;99.90
4399;DHT22;2213;49.720;7.296;2023-08-08T04:26:41;10.50;99.90
4399;DHT22;2213;49.720;7.296;2023-08-08T04:29:11;10.40;99.90
4399;DHT22;2213;49.720;7.296;2023-08-08T04:31:42;10.50;99.90
4399;DHT22;2213;49.720;7.296;2023-08-08T04:34:12;10.40;99.90
4399;DHT22;2213;49.720;7.296;2023-08-08T04:36:41;10.40;99.90
4399;DHT22;2213;49.720;7.296;2023-08-08T04:39:11;10.40;99.90
4399;DHT22;2213;49.720;7.296;2023-08-08T04:41:43;10.40;99.90
4399;DHT22;2213;49.720;7.296;2023-08-08T04:44:13;10.40;99.90
4399;DHT22;2213;49.720;7.296;2023-08-08T04:46:44;10.40;99.90
4399;DHT22;2213;49.720;7.296;2023-08-08T04:49:14;10.40;99.90
4399;DHT22;2213;49.720;7.296;2023-08-08T04:51:46;10.40;99.90
4399;DHT22;2213;49.720;7.296;2023-08-08T04:54:16;10.30;99.90
4399;DHT22;2213;49.720;7.296;2023-08-08T04:56:48;10.40;99.90
4399;DHT22;2213;49.720;7.296;2023-08-08T04:59:18;10.40;99.90
4399;DHT22;2213;49.720;7.296;2023-08-08T05:01:50;10.40;99.90
4399;DHT22;2213;49.720;7.296;2023-08-08T05:04:20;10.40;99.90
4399;DHT22;2213;49.720;7.296;2023-08-08T05:06:51;10.40;99.90
4399;DHT22;2213;49.720;7.296;2023-08-08T05:09:21;10.40;99.90
4399;DHT22;2213;49.720;7.296;2023-08-08T05:11:54;10.50;99.90
4399;DHT22;2213;49.720;7.296;2023-08-08T05:14:25;10.50;99.90
4399;DHT22;2213;49.720;7.296;2023-08-08T05:16:55;10.50;99.90
4399;DHT22;2213;49.720;7.296;2023-08-08T05:19:25;10.40;99.90
4399;DHT22;2213;49.720;7.296;2023-08-08T05:21:56;10.40;99.90
4399;DHT22;2213;49.720;7.296;2023-08-08T05:24:26;10.40;99.90
4399;DHT22;2213;49.720;7.296;2023-08-08T05:26:58;10.50;99.90
4399;DHT22;2213;49.720;7.296;2023-08-08T05:29:27;10.50;99.90
4399;DHT22;2213;49.720;7.296;2023-08-08T05:31:58;10.50;99.90
4399;DHT22;2213;49.720;7.296;2023-08-08T05:34:29;10.50;99.90
4399;DHT22;2213;49.720;7.296;2023-08-08T05:36:59;10.50;99.90
4399;DHT22;2213;49.720;7.296;2023-08-08T05:39:44;10.60;99.90
4399;DHT22;2213;49.720;7.296;2023-08-08T05:42:15;10.60;99.90
4399;DHT22;2213;49.720;7.296;2023-08-08T05:44:43;10.70;99.90
4399;DHT22;2213;49.720;7.296;2023-08-08T05:47:15;10.70;99.90
4399;DHT22;2213;49.720;7.296;2023-08-08T05:49:45;10.70;99.90
4399;DHT22;2213;49.720;7.296;2023-08-08T05:52:16;10.80;99.90
4399;DHT22;2213;49.720;7.296;2023-08-08T05:54:46;10.90;99.90
4399;DHT22;2213;49.720;7.296;2023-08-08T05:57:18;10.90;99.90
4399;DHT22;2213;49.720;7.296;2023-08-08T05:59:50;11.00;99.90
4399;DHT22;2213;49.720;7.296;2023-08-08T06:02:19;11.10;99.90
4399;DHT22;2213;49.720;7.296;2023-08-08T06:04:49;11.10;99.90
4399;DHT22;2213;49.720;7.296;2023-08-08T06:07:20;11.20;99.90
4399;DHT22;2213;49.720;7.296;2023-08-08T06:09:49;11.30;99.90
4399;DHT22;2213;49.720;7.296;2023-08-08T06:12:21;11.30;99.90
4399;DHT22;2213;49.720;7.296;2023-08-08T06:14:51;11.40;99.90
4399;DHT22;2213;49.720;7.296;2023-08-08T06:17:21;11.50;99.90
4399;DHT22;2213;49.720;7.296;2023-08-08T06:19:53;11.50;99.90
4399;DHT22;2213;49.720;7.296;2023-08-08T06:22:25;11.60;99.90
4399;DHT22;2213;49.720;7.296;2023-08-08T06:24:55;11.70;99.90
4399;DHT22;2213;49.720;7.296;2023-08-08T06:27:26;11.70;99.90
4399;DHT22;2213;49.720;7.296;2023-08-08T06:29:57;11.70;99.90
4399;DHT22;2213;49.720;7.296;2023-08-08T06:32:27;11.80;99.90
4399;DHT22;2213;49.720;7.296;2023-08-08T06:34:57;11.90;99.90
4399;DHT22;2213;49.720;7.296;2023-08-08T06:37:27;11.90;99.90
4399;DHT22;2213;49.720;7.296;2023-08-08T06:39:58;11.90;99.90
4399;DHT22;2213;49.720;7.296;2023-08-08T06:42:30;12.00;99.90
4399;DHT22;2213;49.720;7.296;2023-08-08T06:45:00;12.10;99.90
4399;DHT22;2213;49.720;7.296;2023-08-08T06:47:30;12.10;99.90
4399;DHT22;2213;49.720;7.296;2023-08-08T06:50:00;12.20;99.90
4399;DHT22;2213;49.720;7.296;2023-08-08T06:52:30;12.30;99.90
4399;DHT22;2213;49.720;7.296;2023-08-08T06:55:01;12.40;99.90
4399;DHT22;2213;49.720;7.296;2023-08-08T06:57:33;12.40;99.90
4399;DHT22;2213;49.720;7.296;2023-08-08T07:00:04;12.50;99.90
4399;DHT22;2213;49.720;7.296;2023-08-08T07:02:36;12.60;99.90
4399;DHT22;2213;49.720;7.296;2023-08-08T07:05:08;12.60;99.90
4399;DHT22;2213;49.720;7.296;2023-08-08T07:07:38;12.70;99.90
4399;DHT22;2213;49.720;7.296;2023-08-08T07:10:08;12.90;99.90
4399;DHT22;2213;49.720;7.296;2023-08-08T07:12:41;12.90;99.90
4399;DHT22;2213;49.720;7.296;2023-08-08T07:15:13;13.10;99.90
4399;DHT22;2213;49.720;7.296;2023-08-08T07:17:42;13.20;99.90
4399;DHT22;2213;49.720;7.296;2023-08-08T07:20:13;13.20;99.90
4399;DHT22;2213;49.720;7.296;2023-08-08T07:22:42;13.30;99.90
4399;DHT22;2213;49.720;7.296;2023-08-08T07:25:12;13.30;99.90
4399;DHT22;2213;49.720;7.296;2023-08-08T07:27:44;13.40;99.90
4399;DHT22;2213;49.720;7.296;2023-08-08T07:30:17;13.50;99.90
4399;DHT22;2213;49.720;7.296;2023-08-08T07:32:47;13.60;99.90
4399;DHT22;2213;49.720;7.296;2023-08-08T07:35:16;13.60;99.90
4399;DHT22;2213;49.720;7.296;2023-08-08T07:37:47;13.70;99.90
4399;DHT22;2213;49.720;7.296;2023-08-08T07:40:20;13.80;99.90
4399;DHT22;2213;49.720;7.296;2023-08-08T07:42:50;14.00;99.90
4399;DHT22;2213;49.720;7.296;2023-08-08T07:45:20;14.10;99.90
4399;DHT22;2213;49.720;7.296;2023-08-08T07:47:51;14.10;99.90
4399;DHT22;2213;49.720;7.296;2023-08-08T07:50:21;14.20;99.90
4399;DHT22;2213;49.720;7.296;2023-08-08T07:52:52;14.30;99.90
4399;DHT22;2213;49.720;7.296;2023-08-08T07:55:22;14.30;99.90
4399;DHT22;2213;49.720;7.296;2023-08-08T07:57:53;14.30;99.90
4399;DHT22;2213;49.720;7.296;2023-08-08T08:00:22;14.50;99.90
4399;DHT22;2213;49.720;7.296;2023-08-08T08:02:52;14.50;99.90
4399;DHT22;2213;49.720;7.296;2023-08-08T08:05:22;14.60;99.90
4399;DHT22;2213;49.720;7.296;2023-08-08T08:07:52;14.70;99.90
4399;DHT22;2213;49.720;7.296;2023-08-08T08:10:22;14.80;99.90
4399;DHT22;2213;49.720;7.296;2023-08-08T08:12:54;14.90;99.90
4399;DHT22;2213;49.720;7.296;2023-08-08T08:15:25;14.90;99.90
4399;DHT22;2213;49.720;7.296;2023-08-08T08:17:55;15.00;99.90
4399;DHT22;2213;49.720;7.296;2023-08-08T08:20:27;15.10;99.90
4399;DHT22;2213;49.720;7.296;2023-08-08T08:22:57;15.20;99.90
4399;DHT22;2213;49.720;7.296;2023-08-08T08:25:28;15.20;99.90
4399;DHT22;2213;49.720;7.296;2023-08-08T08:28:01;15.20;99.90
4399;DHT22;2213;49.720;7.296;2023-08-08T08:30:32;15.30;99.90
4399;DHT22;2213;49.720;7.296;2023-08-08T08:33:05;15.40;99.90
4399;DHT22;2213;49.720;7.296;2023-08-08T08:35:36;15.50;99.90
4399;DHT22;2213;49.720;7.296;2023-08-08T08:38:06;15.60;99.90
4399;DHT22;2213;49.720;7.296;2023-08-08T08:40:41;15.80;99.90
4399;DHT22;2213;49.720;7.296;2023-08-08T08:43:15;15.70;99.90
4399;DHT22;2213;49.720;7.296;2023-08-08T08:45:50;15.70;99.90
4399;DHT22;2213;49.720;7.296;2023-08-08T08:48:22;15.80;99.90
4399;DHT22;2213;49.720;7.296;2023-08-08T08:50:53;15.80;99.90
4399;DHT22;2213;49.720;7.296;2023-08-08T08:53:24;15.80;99.90
4399;DHT22;2213;49.720;7.296;2023-08-08T08:55:56;15.90;99.90
4399;DHT22;2213;49.720;7.296;2023-08-08T08:58:27;15.90;99.90
4399;DHT22;2213;49.720;7.296;2023-08-08T09:00:58;16.00;99.90
4399;DHT22;2213;49.720;7.296;2023-08-08T09:03:29;16.10;99.90
4399;DHT22;2213;49.720;7.296;2023-08-08T09:05:59;16.10;99.90
4399;DHT22;2213;49.720;7.296;2023-08-08T09:08:30;16.20;99.90
4399;DHT22;2213;49.720;7.296;2023-08-08T09:10:59;16.10;99.90
4399;DHT22;2213;49.720;7.296;2023-08-08T09:13:36;16.20;99.90
4399;DHT22;2213;49.720;7.296;2023-08-08T09:16:08;16.20;99.90
4399;DHT22;2213;49.720;7.296;2023-08-08T09:18:40;16.20;99.90
4399;DHT22;2213;49.720;7.296;2023-08-08T09:21:10;16.30;99.90
4399;DHT22;2213;49.720;7.296;2023-08-08T09:23:40;16.40;99.90
4399;DHT22;2213;49.720;7.296;2023-08-08T09:26:13;16.50;99.90
4399;DHT22;2213;49.720;7.296;2023-08-08T09:28:45;16.40;99.90
4399;DHT22;2213;49.720;7.296;2023-08-08T09:31:17;16.40;99.90
4399;DHT22;2213;49.720;7.296;2023-08-08T09:33:46;16.50;99.90
4399;DHT22;2213;49.720;7.296;2023-08-08T09:36:18;16.60;99.90
4399;DHT22;2213;49.720;7.296;2023-08-08T09:38:49;16.70;99.90
4399;DHT22;2213;49.720;7.296;2023-08-08T09:41:19;16.90;99.90
4399;DHT22;2213;49.720;7.296;2023-08-08T09:43:52;17.00;99.90
4399;DHT22;2213;49.720;7.296;2023-08-08T09:46:22;16.90;99.90
4399;DHT22;2213;49.720;7.296;2023-08-08T09:48:54;16.90;99.90
4399;DHT22;2213;49.720;7.296;2023-08-08T09:51:24;17.00;99.90
4399;DHT22;2213;49.720;7.296;2023-08-08T09:53:56;17.10;99.90
4399;DHT22;2213;49.720;7.296;2023-08-08T09:56:28;17.00;99.90
4399;DHT22;2213;49.720;7.296;2023-08-08T09:59:01;17.00;99.90
4399;DHT22;2213;49.720;7.296;2023-08-08T10:01:32;17.20;99.90
4399;DHT22;2213;49.720;7.296;2023-08-08T10:04:04;17.20;99.90
4399;DHT22;2213;49.720;7.296;2023-08-08T10:06:36;17.30;99.90
4399;DHT22;2213;49.720;7.296;2023-08-08T10:09:05;17.30;99.90
4399;DHT22;2213;49.720;7.296;2023-08-08T10:11:36;17.30;99.90
4399;DHT22;2213;49.720;7.296;2023-08-08T10:14:09;17.20;99.90
4399;DHT22;2213;49.720;7.296;2023-08-08T10:16:42;17.40;99.90
4399;DHT22;2213;49.720;7.296;2023-08-08T10:19:13;17.30;99.90
4399;DHT22;2213;49.720;7.296;2023-08-08T10:21:59;17.50;99.90
4399;DHT22;2213;49.720;7.296;2023-08-08T10:24:34;17.50;99.90
4399;DHT22;2213;49.720;7.296;2023-08-08T10:27:04;17.60;99.90
4399;DHT22;2213;49.720;7.296;2023-08-08T10:29:38;17.50;99.90
4399;DHT22;2213;49.720;7.296;2023-08-08T10:32:09;17.50;99.90
4399;DHT22;2213;49.720;7.296;2023-08-08T10:34:39;17.70;99.90
4399;DHT22;2213;49.720;7.296;2023-08-08T10:37:12;17.70;99.90
4399;DHT22;2213;49.720;7.296;2023-08-08T10:39:51;17.70;99.90
4399;DHT22;2213;49.720;7.296;2023-08-08T10:42:23;17.70;99.90
4399;DHT22;2213;49.720;7.296;2023-08-08T10:44:56;17.80;99.60
4399;DHT22;2213;49.720;7.296;2023-08-08T10:47:30;17.80;98.70
4399;DHT22;2213;49.720;7.296;2023-08-08T10:50:07;17.70;98.90
4399;DHT22;2213;49.720;7.296;2023-08-08T10:52:52;18.00;99.00
4399;DHT22;2213;49.720;7.296;2023-08-08T10:55:25;18.20;99.40
4399;DHT22;2213;49.720;7.296;2023-08-08T10:58:02;18.00;99.00
4399;DHT22;2213;49.720;7.296;2023-08-08T11:00:36;18.00;98.90
4399;DHT22;2213;49.720;7.296;2023-08-08T11:03:08;18.10;99.50
4399;DHT22;2213;49.720;7.296;2023-08-08T11:05:38;18.20;99.30
4399;DHT22;2213;49.720;7.296;2023-08-08T11:08:12;18.30;99.10
4399;DHT22;2213;49.720;7.296;2023-08-08T11:10:42;18.30;99.00
4399;DHT22;2213;49.720;7.296;2023-08-08T11:13:12;18.40;98.50
4399;DHT22;2213;49.720;7.296;2023-08-08T11:15:43;18.40;98.10
4399;DHT22;2213;49.720;7.296;2023-08-08T11:18:13;18.40;98.60
4399;DHT22;2213;49.720;7.296;2023-08-08T11:20:44;18.20;98.10
4399;DHT22;2213;49.720;7.296;2023-08-08T11:23:14;18.40;98.40
4399;DHT22;2213;49.720;7.296;2023-08-08T11:25:44;18.60;98.60
4399;DHT22;2213;49.720;7.296;2023-08-08T11:28:35;18.50;98.20
4399;DHT22;2213;49.720;7.296;2023-08-08T11:31:07;18.50;98.70
4399;DHT22;2213;49.720;7.296;2023-08-08T11:33:38;18.60;98.30
4399;DHT22;2213;49.720;7.296;2023-08-08T11:36:09;18.50;98.40
4399;DHT22;2213;49.720;7.296;2023-08-08T11:38:40;18.70;98.80
4399;DHT22;2213;49.720;7.296;2023-08-08T11:41:11;18.80;98.90
4399;DHT22;2213;49.720;7.296;2023-08-08T11:43:43;18.70;98.10
4399;DHT22;2213;49.720;7.296;2023-08-08T11:46:15;18.90;98.00
4399;DHT22;2213;49.720;7.296;2023-08-08T11:48:47;18.90;98.70
4399;DHT22;2213;49.720;7.296;2023-08-08T11:51:17;18.80;98.20
4399;DHT22;2213;49.720;7.296;2023-08-08T11:53:50;18.80;98.30
4399;DHT22;2213;49.720;7.296;2023-08-08T11:56:21;18.80;98.90
4399;DHT22;2213;49.720;7.296;2023-08-08T11:58:51;18.90;98.30
4399;DHT22;2213;49.720;7.296;2023-08-08T12:01:24;19.00;98.30
4399;DHT22;2213;49.720;7.296;2023-08-08T12:03:54;18.90;97.70
4399;DHT22;2213;49.720;7.296;2023-08-08T12:06:29;18.90;98.10
4399;DHT22;2213;49.720;7.296;2023-08-08T12:08:58;18.90;97.90
4399;DHT22;2213;49.720;7.296;2023-08-08T12:11:30;18.90;98.50
4399;DHT22;2213;49.720;7.296;2023-08-08T12:14:01;18.80;98.50
4399;DHT22;2213;49.720;7.296;2023-08-08T12:16:33;18.90;98.70
4399;DHT22;2213;49.720;7.296;2023-08-08T12:19:08;19.00;98.80
4399;DHT22;2213;49.720;7.296;2023-08-08T12:21:38;19.00;98.10
4399;DHT22;2213;49.720;7.296;2023-08-08T12:24:09;19.00;98.00
4399;DHT22;2213;49.720;7.296;2023-08-08T12:26:39;19.10;98.40
4399;DHT22;2213;49.720;7.296;2023-08-08T12:29:08;19.10;98.50
4399;DHT22;2213;49.720;7.296;2023-08-08T12:31:41;19.10;98.70
4399;DHT22;2213;49.720;7.296;2023-08-08T12:34:10;19.10;98.90
4399;DHT22;2213;49.720;7.296;2023-08-08T12:36:41;19.20;98.40
4399;DHT22;2213;49.720;7.296;2023-08-08T12:39:10;19.30;98.00
4399;DHT22;2213;49.720;7.296;2023-08-08T12:41:41;19.10;98.20
4399;DHT22;2213;49.720;7.296;2023-08-08T12:44:12;19.10;98.80
4399;DHT22;2213;49.720;7.296;2023-08-08T12:46:44;19.10;98.90
4399;DHT22;2213;49.720;7.296;2023-08-08T12:49:15;19.10;99.60
4399;DHT22;2213;49.720;7.296;2023-08-08T12:51:45;19.10;99.40
4399;DHT22;2213;49.720;7.296;2023-08-08T12:54:17;19.10;99.20
4399;DHT22;2213;49.720;7.296;2023-08-08T12:56:48;19.20;99.10
4399;DHT22;2213;49.720;7.296;2023-08-08T12:59:18;19.20;99.50
4399;DHT22;2213;49.720;7.296;2023-08-08T13:01:50;19.10;99.40
4399;DHT22;2213;49.720;7.296;2023-08-08T13:04:20;19.10;99.80
4399;DHT22;2213;49.720;7.296;2023-08-08T13:06:49;19.20;99.80
4399;DHT22;2213;49.720;7.296;2023-08-08T13:09:20;19.10;99.50
4399;DHT22;2213;49.720;7.296;2023-08-08T13:11:51;19.10;99.70
4399;DHT22;2213;49.720;7.296;2023-08-08T13:14:20;19.20;99.70
4399;DHT22;2213;49.720;7.296;2023-08-08T13:16:51;19.10;99.60
4399;DHT22;2213;49.720;7.296;2023-08-08T13:19:20;18.80;99.90
4399;DHT22;2213;49.720;7.296;2023-08-08T13:21:52;18.90;99.90
4399;DHT22;2213;49.720;7.296;2023-08-08T13:24:22;18.80;99.90
4399;DHT22;2213;49.720;7.296;2023-08-08T13:26:51;18.80;99.90
4399;DHT22;2213;49.720;7.296;2023-08-08T13:29:21;18.80;99.90
4399;DHT22;2213;49.720;7.296;2023-08-08T13:31:51;18.70;99.90
4399;DHT22;2213;49.720;7.296;2023-08-08T13:34:20;18.60;99.90
4399;DHT22;2213;49.720;7.296;2023-08-08T13:36:51;18.60;99.90
4399;DHT22;2213;49.720;7.296;2023-08-08T13:39:23;18.70;99.90
4399;DHT22;2213;49.720;7.296;2023-08-08T13:41:53;18.70;99.90
4399;DHT22;2213;49.720;7.296;2023-08-08T13:44:23;18.90;99.90
4399;DHT22;2213;49.720;7.296;2023-08-08T13:46:54;19.00;99.90
4399;DHT22;2213;49.720;7.296;2023-08-08T13:49:24;19.00;99.90
4399;DHT22;2213;49.720;7.296;2023-08-08T13:51:55;19.10;99.90
4399;DHT22;2213;49.720;7.296;2023-08-08T13:54:24;18.90;99.90
4399;DHT22;2213;49.720;7.296;2023-08-08T13:56:54;18.90;99.90
4399;DHT22;2213;49.720;7.296;2023-08-08T13:59:24;18.90;99.90
4399;DHT22;2213;49.720;7.296;2023-08-08T14:01:55;18.90;99.90
4399;DHT22;2213;49.720;7.296;2023-08-08T14:04:25;18.90;99.90
4399;DHT22;2213;49.720;7.296;2023-08-08T14:06:55;19.00;99.90
4399;DHT22;2213;49.720;7.296;2023-08-08T14:09:24;19.00;99.90
4399;DHT22;2213;49.720;7.296;2023-08-08T14:11:54;19.00;99.90
4399;DHT22;2213;49.720;7.296;2023-08-08T14:14:26;18.80;99.90
4399;DHT22;2213;49.720;7.296;2023-08-08T14:16:58;18.90;99.90
4399;DHT22;2213;49.720;7.296;2023-08-08T14:19:28;18.60;99.90
4399;DHT22;2213;49.720;7.296;2023-08-08T14:21:58;18.70;99.90
4399;DHT22;2213;49.720;7.296;2023-08-08T14:24:29;18.40;99.90
4399;DHT22;2213;49.720;7.296;2023-08-08T14:27:00;18.40;99.90
4399;DHT22;2213;49.720;7.296;2023-08-08T14:29:30;18.40;99.90
4399;DHT22;2213;49.720;7.296;2023-08-08T14:32:01;18.40;99.90
4399;DHT22;2213;49.720;7.296;2023-08-08T14:34:33;18.50;99.90
4399;DHT22;2213;49.720;7.296;2023-08-08T14:37:05;18.40;99.90
4399;DHT22;2213;49.720;7.296;2023-08-08T14:39:35;18.40;99.90
4399;DHT22;2213;49.720;7.296;2023-08-08T14:42:06;18.40;99.90
4399;DHT22;2213;49.720;7.296;2023-08-08T14:44:35;18.40;99.90
4399;DHT22;2213;49.720;7.296;2023-08-08T14:47:07;18.50;99.90
4399;DHT22;2213;49.720;7.296;2023-08-08T14:49:38;18.50;99.90
4399;DHT22;2213;49.720;7.296;2023-08-08T14:52:10;18.70;99.90
4399;DHT22;2213;49.720;7.296;2023-08-08T14:54:43;18.80;99.90
4399;DHT22;2213;49.720;7.296;2023-08-08T14:57:12;19.00;99.90
4399;DHT22;2213;49.720;7.296;2023-08-08T14:59:42;19.00;99.90
4399;DHT22;2213;49.720;7.296;2023-08-08T15:02:14;19.20;99.90
4399;DHT22;2213;49.720;7.296;2023-08-08T15:04:45;19.30;99.90
4399;DHT22;2213;49.720;7.296;2023-08-08T15:07:17;19.40;99.90
4399;DHT22;2213;49.720;7.296;2023-08-08T15:09:46;19.40;99.90
4399;DHT22;2213;49.720;7.296;2023-08-08T15:12:16;19.40;99.90
4399;DHT22;2213;49.720;7.296;2023-08-08T15:14:45;19.40;99.90
4399;DHT22;2213;49.720;7.296;2023-08-08T15:17:17;19.50;99.90
4399;DHT22;2213;49.720;7.296;2023-08-08T15:19:47;19.40;99.90
4399;DHT22;2213;49.720;7.296;2023-08-08T15:22:17;19.30;99.90
4399;DHT22;2213;49.720;7.296;2023-08-08T15:24:47;19.30;99.90
4399;DHT22;2213;49.720;7.296;2023-08-08T15:27:17;19.30;99.90
4399;DHT22;2213;49.720;7.296;2023-08-08T15:29:47;19.20;99.90
4399;DHT22;2213;49.720;7.296;2023-08-08T15:32:17;19.20;99.90
4399;DHT22;2213;49.720;7.296;2023-08-08T15:34:48;19.00;99.90
4399;DHT22;2213;49.720;7.296;2023-08-08T15:37:18;19.10;99.90
4399;DHT22;2213;49.720;7.296;2023-08-08T15:39:47;19.10;99.90
4399;DHT22;2213;49.720;7.296;2023-08-08T15:42:18;19.10;99.90
4399;DHT22;2213;49.720;7.296;2023-08-08T15:44:47;19.10;99.90
4399;DHT22;2213;49.720;7.296;2023-08-08T15:47:17;19.10;99.90
4399;DHT22;2213;49.720;7.296;2023-08-08T15:49:47;19.10;99.90
4399;DHT22;2213;49.720;7.296;2023-08-08T15:52:16;19.20;99.90
4399;DHT22;2213;49.720;7.296;2023-08-08T15:54:46;19.10;99.90
4399;DHT22;2213;49.720;7.296;2023-08-08T15:57:15;19.00;99.90
4399;DHT22;2213;49.720;7.296;2023-08-08T15:59:45;19.10;99.90
4399;DHT22;2213;49.720;7.296;2023-08-08T16:02:14;19.10;99.90
4399;DHT22;2213;49.720;7.296;2023-08-08T16:04:46;19.10;99.90
4399;DHT22;2213;49.720;7.296;2023-08-08T16:07:16;19.10;99.90
4399;DHT22;2213;49.720;7.296;2023-08-08T16:09:48;19.10;99.90
4399;DHT22;2213;49.720;7.296;2023-08-08T16:12:18;19.10;99.90
4399;DHT22;2213;49.720;7.296;2023-08-08T16:14:48;19.10;99.90
4399;DHT22;2213;49.720;7.296;2023-08-08T16:17:18;19.20;99.90
4399;DHT22;2213;49.720;7.296;2023-08-08T16:19:51;19.10;99.90
4399;DHT22;2213;49.720;7.296;2023-08-08T16:22:21;18.90;99.90
4399;DHT22;2213;49.720;7.296;2023-08-08T16:24:52;18.90;99.90
4399;DHT22;2213;49.720;7.296;2023-08-08T16:27:22;19.00;99.90